createdAt,value
2022-08-29T00:00:09.784Z,16.69
2022-08-29T00:02:46.047Z,16.71
2022-08-29T00:05:12.584Z,16.67
2022-08-29T00:07:39.363Z,16.67
2022-08-29T00:10:07.329Z,16.71
2022-08-29T00:12:33.818Z,16.68
2022-08-29T00:15:00.362Z,16.59
2022-08-29T00:17:26.847Z,16.57
2022-08-29T00:19:53.370Z,16.53
2022-08-29T00:22:19.810Z,16.53
2022-08-29T00:24:46.293Z,16.48
2022-08-29T00:27:12.834Z,16.46
2022-08-29T00:29:39.842Z,16.45
2022-08-29T00:32:06.689Z,16.36
2022-08-29T00:34:33.434Z,16.30
2022-08-29T00:36:59.950Z,16.27
2022-08-29T00:39:26.479Z,16.19
2022-08-29T00:41:53.445Z,16.23
2022-08-29T00:44:20.079Z,16.27
2022-08-29T00:46:52.045Z,16.28
2022-08-29T00:49:24.713Z,16.29
2022-08-29T00:51:52.653Z,16.25
2022-08-29T00:54:19.390Z,16.24
2022-08-29T00:56:46.498Z,16.21
2022-08-29T00:59:36.841Z,16.14
2022-08-29T01:02:04.948Z,16.17
2022-08-29T01:04:32.763Z,16.18
2022-08-29T01:07:00.093Z,16.15
2022-08-29T01:09:28.404Z,16.13
2022-08-29T01:12:14.438Z,16.06
2022-08-29T01:14:59.574Z,15.98
2022-08-29T01:17:31.356Z,15.94
2022-08-29T01:20:00.695Z,15.91
2022-08-29T01:22:58.120Z,15.81
2022-08-29T01:25:27.351Z,15.77
2022-08-29T01:28:33.778Z,15.72
2022-08-29T01:31:13.259Z,15.72
2022-08-29T01:33:49.831Z,15.64
2022-08-29T01:36:24.005Z,15.53
2022-08-29T01:38:50.564Z,15.52
2022-08-29T01:41:20.457Z,15.52
2022-08-29T01:43:51.882Z,15.55
2022-08-29T01:46:26.169Z,15.45
2022-08-29T01:48:52.794Z,15.39
2022-08-29T01:51:20.128Z,15.37
2022-08-29T01:53:47.039Z,15.35
2022-08-29T01:56:19.801Z,15.35
2022-08-29T01:58:48.504Z,15.33
2022-08-29T02:01:18.404Z,15.36
2022-08-29T02:03:48.883Z,15.34
2022-08-29T02:06:15.613Z,15.27
2022-08-29T02:08:44.344Z,15.24
2022-08-29T02:11:11.444Z,15.20
2022-08-29T02:13:40.982Z,15.16
2022-08-29T02:16:07.631Z,15.08
2022-08-29T02:18:34.259Z,15.06
2022-08-29T02:21:01.776Z,15.07
2022-08-29T02:23:31.270Z,15.07
2022-08-29T02:25:58.639Z,15.06
2022-08-29T02:28:25.123Z,14.99
2022-08-29T02:30:56.741Z,14.92
2022-08-29T02:33:24.789Z,14.90
2022-08-29T02:35:53.253Z,14.85
2022-08-29T02:38:20.517Z,14.78
2022-08-29T02:40:48.580Z,14.79
2022-08-29T02:43:18.029Z,14.77
2022-08-29T02:45:45.489Z,14.78
2022-08-29T02:48:12.873Z,14.80
2022-08-29T02:50:41.254Z,14.76
2022-08-29T02:53:07.728Z,14.75
2022-08-29T02:55:34.336Z,14.74
2022-08-29T02:58:01.331Z,14.72
2022-08-29T03:00:28.546Z,14.68
2022-08-29T03:02:56.693Z,14.65
2022-08-29T03:05:27.403Z,14.61
2022-08-29T03:07:55.637Z,14.61
2022-08-29T03:10:23.127Z,14.64
2022-08-29T03:12:49.859Z,14.64
2022-08-29T03:15:17.539Z,14.60
2022-08-29T03:17:44.798Z,14.59
2022-08-29T03:20:12.380Z,14.58
2022-08-29T03:22:39.737Z,14.58
2022-08-29T03:25:07.843Z,14.58
2022-08-29T03:27:34.778Z,14.58
2022-08-29T03:30:01.819Z,14.60
2022-08-29T03:32:28.649Z,14.56
2022-08-29T03:34:55.235Z,14.51
2022-08-29T03:37:22.047Z,14.52
2022-08-29T03:39:50.876Z,14.48
2022-08-29T03:42:17.557Z,14.43
2022-08-29T03:44:44.096Z,14.40
2022-08-29T03:47:10.691Z,14.35
2022-08-29T03:49:37.703Z,14.32
2022-08-29T03:52:05.578Z,14.30
2022-08-29T03:54:33.172Z,14.32
2022-08-29T03:56:59.674Z,14.37
2022-08-29T03:59:26.138Z,14.40
2022-08-29T04:01:52.611Z,14.37
2022-08-29T04:04:39.211Z,14.37
2022-08-29T04:07:06.792Z,14.35
2022-08-29T04:09:33.331Z,14.36
2022-08-29T04:12:00.267Z,14.33
2022-08-29T04:14:26.847Z,14.36
2022-08-29T04:16:53.358Z,14.35
2022-08-29T04:19:21.051Z,14.27
2022-08-29T04:21:48.932Z,14.24
2022-08-29T04:24:16.335Z,14.21
2022-08-29T04:26:42.838Z,14.17
2022-08-29T04:29:11.187Z,14.12
2022-08-29T04:31:39.166Z,14.09
2022-08-29T04:34:07.451Z,14.07
2022-08-29T04:36:38.918Z,14.08
2022-08-29T04:39:06.197Z,14.12
2022-08-29T04:41:33.789Z,14.12
2022-08-29T04:44:01.678Z,14.13
2022-08-29T04:46:28.186Z,14.10
2022-08-29T04:48:55.176Z,14.14
2022-08-29T04:51:22.678Z,14.13
2022-08-29T04:53:53.217Z,14.11
2022-08-29T04:56:21.277Z,14.10
2022-08-29T04:58:48.122Z,14.15
2022-08-29T05:01:17.171Z,14.15
2022-08-29T05:03:44.009Z,14.17
2022-08-29T05:06:12.803Z,14.18
2022-08-29T05:08:41.838Z,14.20
2022-08-29T05:11:22.856Z,14.20
2022-08-29T05:13:53.238Z,14.25
2022-08-29T05:16:20.189Z,14.30
2022-08-29T05:18:46.922Z,14.34
2022-08-29T05:21:15.201Z,14.33
2022-08-29T05:23:41.728Z,14.29
2022-08-29T05:26:08.354Z,14.30
2022-08-29T05:28:35.828Z,14.34
2022-08-29T05:31:02.595Z,14.41
2022-08-29T05:33:29.147Z,14.49
2022-08-29T05:35:56.305Z,14.55
2022-08-29T05:38:22.820Z,14.61
2022-08-29T05:40:49.468Z,14.64
2022-08-29T05:43:16.202Z,14.64
2022-08-29T05:45:42.935Z,14.64
2022-08-29T05:48:09.721Z,14.66
2022-08-29T05:50:44.125Z,14.72
2022-08-29T05:53:13.381Z,14.79
2022-08-29T05:55:44.266Z,14.82
2022-08-29T05:58:11.974Z,14.86
2022-08-29T06:00:46.183Z,14.86
2022-08-29T06:03:13.783Z,14.88
2022-08-29T06:05:41.300Z,14.81
2022-08-29T06:08:08.130Z,14.82
2022-08-29T06:10:39.359Z,14.80
2022-08-29T06:13:05.831Z,14.80
2022-08-29T06:15:33.077Z,14.86
2022-08-29T06:17:59.576Z,14.99
2022-08-29T06:20:26.192Z,15.13
2022-08-29T06:22:52.712Z,15.29
2022-08-29T06:25:38.561Z,15.46
2022-08-29T06:28:05.776Z,15.63
2022-08-29T06:30:33.572Z,15.78
2022-08-29T06:33:01.386Z,15.90
2022-08-29T06:35:28.427Z,16.03
2022-08-29T06:37:55.283Z,16.18
2022-08-29T06:40:21.915Z,16.33
2022-08-29T06:42:48.932Z,16.47
2022-08-29T06:45:15.653Z,16.61
2022-08-29T06:47:43.345Z,16.73
2022-08-29T06:50:10.123Z,16.82
2022-08-29T06:52:36.580Z,16.82
2022-08-29T06:55:03.389Z,16.82
2022-08-29T06:57:29.988Z,16.81
2022-08-29T06:59:56.640Z,16.83
2022-08-29T07:02:23.440Z,16.89
2022-08-29T07:04:49.956Z,16.95
2022-08-29T07:07:16.754Z,17.06
2022-08-29T07:09:44.271Z,17.15
2022-08-29T07:12:10.858Z,17.20
2022-08-29T07:14:37.724Z,17.27
2022-08-29T07:17:04.287Z,17.39
2022-08-29T07:19:30.782Z,17.47
2022-08-29T07:21:58.706Z,17.54
2022-08-29T07:24:26.318Z,17.65
2022-08-29T07:26:52.881Z,17.71
2022-08-29T07:29:21.890Z,17.83
2022-08-29T07:31:49.074Z,17.94
2022-08-29T07:34:15.963Z,18.11
2022-08-29T07:36:43.014Z,18.29
2022-08-29T07:39:16.135Z,18.42
2022-08-29T07:41:44.489Z,18.59
2022-08-29T07:44:12.403Z,18.70
2022-08-29T07:46:40.963Z,18.80
2022-08-29T07:49:07.855Z,18.90
2022-08-29T07:51:35.428Z,19.03
2022-08-29T07:54:02.457Z,19.20
2022-08-29T07:56:37.775Z,19.36
2022-08-29T07:59:04.827Z,19.48
2022-08-29T08:01:31.479Z,19.68
2022-08-29T08:03:58.424Z,19.86
2022-08-29T08:06:27.300Z,20.13
2022-08-29T08:08:54.927Z,20.30
2022-08-29T08:11:23.055Z,20.51
2022-08-29T08:13:50.339Z,20.49
2022-08-29T08:16:20.517Z,20.64
2022-08-29T08:18:48.034Z,20.82
2022-08-29T08:21:14.629Z,20.92
2022-08-29T08:23:42.108Z,20.87
2022-08-29T08:26:10.116Z,20.85
2022-08-29T08:28:36.932Z,20.85
2022-08-29T08:31:07.227Z,20.78
2022-08-29T08:33:40.155Z,20.59
2022-08-29T08:36:19.407Z,20.74
2022-08-29T08:38:46.518Z,20.99
2022-08-29T08:41:27.054Z,21.07
2022-08-29T08:44:07.295Z,21.20
2022-08-29T08:46:43.303Z,21.17
2022-08-29T08:49:34.418Z,21.20
2022-08-29T08:52:06.619Z,21.35
2022-08-29T08:54:42.565Z,21.37
2022-08-29T08:57:12.888Z,21.40
2022-08-29T08:59:43.955Z,21.55
2022-08-29T09:02:28.707Z,21.69
2022-08-29T09:04:57.903Z,21.70
2022-08-29T09:07:28.000Z,21.82
2022-08-29T09:10:01.894Z,21.89
2022-08-29T09:12:39.378Z,21.98
2022-08-29T09:15:13.945Z,21.99
2022-08-29T09:17:48.583Z,21.92
2022-08-29T09:20:22.211Z,21.94
2022-08-29T09:23:00.194Z,21.86
2022-08-29T09:25:29.455Z,21.91
2022-08-29T09:27:58.265Z,21.83
2022-08-29T09:30:31.079Z,21.78
2022-08-29T09:33:02.481Z,21.70
2022-08-29T09:35:47.420Z,21.79
2022-08-29T09:38:25.322Z,21.86
2022-08-29T09:41:01.507Z,21.93
2022-08-29T09:43:39.360Z,22.08
2022-08-29T09:46:17.629Z,22.07
2022-08-29T09:49:09.949Z,21.99
2022-08-29T09:51:40.138Z,22.01
2022-08-29T09:54:27.974Z,21.99
2022-08-29T09:57:01.462Z,21.97
2022-08-29T09:59:34.688Z,22.00
2022-08-29T10:02:27.830Z,22.02
2022-08-29T10:04:59.975Z,21.97
2022-08-29T10:07:30.479Z,21.96
2022-08-29T10:10:18.793Z,22.13
2022-08-29T10:13:06.634Z,22.41
2022-08-29T10:15:51.001Z,22.54
2022-08-29T10:18:36.454Z,22.77
2022-08-29T10:21:18.278Z,22.87
2022-08-29T10:24:04.821Z,23.09
2022-08-29T10:26:52.776Z,23.18
2022-08-29T10:29:31.553Z,23.24
2022-08-29T10:32:07.495Z,23.36
2022-08-29T10:35:24.557Z,23.60
2022-08-29T10:38:13.681Z,23.89
2022-08-29T10:40:48.624Z,24.13
2022-08-29T10:43:59.728Z,24.28
2022-08-29T10:46:44.012Z,24.27
2022-08-29T10:49:44.432Z,24.04
2022-08-29T10:52:26.812Z,23.97
2022-08-29T10:54:56.922Z,24.23
2022-08-29T10:57:47.911Z,24.59
2022-08-29T11:00:25.013Z,24.86
2022-08-29T11:03:07.138Z,24.36
2022-08-29T11:05:40.568Z,24.68
2022-08-29T11:08:17.766Z,24.53
2022-08-29T11:10:49.800Z,24.62
2022-08-29T11:13:45.577Z,25.09
2022-08-29T11:16:23.518Z,25.13
2022-08-29T11:18:55.521Z,25.17
2022-08-29T11:21:34.757Z,25.29
2022-08-29T11:24:04.224Z,25.63
2022-08-29T11:27:07.371Z,25.99
2022-08-29T11:29:54.327Z,26.24
2022-08-29T11:32:52.029Z,26.55
2022-08-29T11:35:24.608Z,26.72
2022-08-29T11:38:07.786Z,26.83
2022-08-29T11:41:31.268Z,26.99
2022-08-29T11:44:15.332Z,27.27
2022-08-29T11:46:52.154Z,27.46
2022-08-29T11:49:33.810Z,27.44
2022-08-29T11:52:12.320Z,27.42
2022-08-29T11:54:41.367Z,26.99
2022-08-29T11:57:07.789Z,26.90
2022-08-29T11:59:49.680Z,27.04
2022-08-29T12:02:28.424Z,27.14
2022-08-29T12:04:57.008Z,27.30
2022-08-29T12:07:36.060Z,27.56
2022-08-29T12:10:07.580Z,28.00
2022-08-29T12:12:49.082Z,28.02
2022-08-29T12:15:26.963Z,28.13
2022-08-29T12:18:03.818Z,27.77
2022-08-29T12:20:30.717Z,28.03
2022-08-29T12:23:06.023Z,28.58
2022-08-29T12:26:03.823Z,29.08
2022-08-29T12:28:58.625Z,29.77
2022-08-29T12:32:18.224Z,29.79
2022-08-29T12:35:04.325Z,30.45
2022-08-29T12:37:56.971Z,29.90
2022-08-29T12:40:23.698Z,30.90
2022-08-29T12:43:34.465Z,31.67
2022-08-29T12:46:10.462Z,31.85
2022-08-29T12:48:57.723Z,32.52
2022-08-29T12:51:39.972Z,33.46
2022-08-29T12:54:08.146Z,33.97
2022-08-29T12:56:42.855Z,34.35
2022-08-29T12:59:16.204Z,34.52
2022-08-29T13:01:49.119Z,34.47
2022-08-29T13:04:21.816Z,34.51
2022-08-29T13:07:04.626Z,35.08
2022-08-29T13:09:44.238Z,35.27
2022-08-29T13:12:10.724Z,35.41
2022-08-29T13:14:49.392Z,35.57
2022-08-29T13:17:18.150Z,35.51
2022-08-29T13:20:22.269Z,35.71
2022-08-29T13:22:49.206Z,36.04
2022-08-29T13:25:17.466Z,36.15
2022-08-29T13:27:48.267Z,36.00
2022-08-29T13:30:22.830Z,36.07
2022-08-29T13:32:51.645Z,36.03
2022-08-29T13:35:19.600Z,36.12
2022-08-29T13:38:10.664Z,35.94
2022-08-29T13:40:48.192Z,35.65
2022-08-29T13:43:33.131Z,35.33
2022-08-29T13:46:20.199Z,35.18
2022-08-29T13:48:47.119Z,35.13
2022-08-29T13:51:13.850Z,35.06
2022-08-29T13:53:45.505Z,35.01
2022-08-29T13:56:30.112Z,34.95
2022-08-29T13:58:58.628Z,34.83
2022-08-29T14:02:08.415Z,34.81
2022-08-29T14:04:36.810Z,34.27
2022-08-29T14:06:59.010Z,33.22
2022-08-29T14:29:53.938Z,33.25
2022-08-29T14:32:20.555Z,33.16
2022-08-29T14:34:51.112Z,33.24
2022-08-29T14:37:18.712Z,33.30
2022-08-29T14:39:45.256Z,33.40
2022-08-29T14:42:16.798Z,33.36
2022-08-29T14:44:43.374Z,33.34
2022-08-29T14:47:10.069Z,33.33
2022-08-29T14:49:36.719Z,33.24
2022-08-29T14:52:04.462Z,33.32
2022-08-29T14:54:31.467Z,33.36
2022-08-29T14:56:58.145Z,33.32
2022-08-29T14:59:25.639Z,33.04
2022-08-29T15:01:55.032Z,33.04
2022-08-29T15:04:35.283Z,33.00
2022-08-29T15:07:09.063Z,32.86
2022-08-29T15:09:35.663Z,32.75
2022-08-29T15:12:03.039Z,32.64
2022-08-29T15:14:29.930Z,32.52
2022-08-29T15:16:56.392Z,32.30
2022-08-29T15:20:24.280Z,32.03
2022-08-29T15:22:10.820Z,31.77
2022-08-29T15:24:37.566Z,31.59
2022-08-29T15:27:04.614Z,31.45
2022-08-29T15:29:31.304Z,31.04
2022-08-29T15:31:57.814Z,30.75
2022-08-29T15:34:25.576Z,30.62
2022-08-29T15:36:53.137Z,30.39
2022-08-29T15:39:20.150Z,30.26
2022-08-29T15:41:46.839Z,29.98
2022-08-29T15:44:13.813Z,29.80
2022-08-29T15:46:50.558Z,29.58
2022-08-29T15:49:19.221Z,29.33
2022-08-29T15:51:46.116Z,29.19
2022-08-29T15:54:13.040Z,29.07
2022-08-29T15:56:40.575Z,28.97
2022-08-29T15:59:09.383Z,28.89
2022-08-29T16:01:45.042Z,28.80
2022-08-29T16:04:13.804Z,28.68
2022-08-29T16:06:40.670Z,28.59
2022-08-29T16:09:15.149Z,28.50
2022-08-29T16:11:44.068Z,28.41
2022-08-29T16:14:46.679Z,28.28
2022-08-29T16:16:57.697Z,28.21
2022-08-29T16:19:24.261Z,28.11
2022-08-29T16:21:50.981Z,28.03
2022-08-29T16:24:17.719Z,27.98
2022-08-29T16:26:45.895Z,27.92
2022-08-29T16:29:12.992Z,27.88
2022-08-29T16:31:39.837Z,27.83
2022-08-29T16:34:06.781Z,27.81
2022-08-29T16:36:33.311Z,27.81
2022-08-29T16:39:00.002Z,27.79
2022-08-29T16:41:28.249Z,27.77
2022-08-29T16:43:55.185Z,27.70
2022-08-29T16:46:25.368Z,27.64
2022-08-29T16:48:52.278Z,27.61
2022-08-29T16:51:21.846Z,27.55
2022-08-29T16:53:48.639Z,27.47
2022-08-29T16:56:16.810Z,27.42
2022-08-29T16:59:02.006Z,27.34
2022-08-29T17:01:35.891Z,27.31
2022-08-29T17:04:04.377Z,27.29
2022-08-29T17:06:32.441Z,27.25
2022-08-29T17:08:59.269Z,27.20
2022-08-29T17:11:25.977Z,27.17
2022-08-29T17:13:52.451Z,27.10
2022-08-29T17:16:19.312Z,27.13
2022-08-29T17:18:46.692Z,27.07
2022-08-29T17:21:13.830Z,26.98
2022-08-29T17:23:40.783Z,26.90
2022-08-29T17:26:10.928Z,26.81
2022-08-29T17:28:38.822Z,26.75
2022-08-29T17:31:06.601Z,26.66
2022-08-29T17:33:33.873Z,26.58
2022-08-29T17:36:01.058Z,26.53
2022-08-29T17:38:27.622Z,26.46
2022-08-29T17:40:58.905Z,26.39
2022-08-29T17:43:27.498Z,26.37
2022-08-29T17:45:54.112Z,26.31
2022-08-29T17:48:21.395Z,26.27
2022-08-29T17:50:49.039Z,26.21
2022-08-29T17:53:17.185Z,26.13
2022-08-29T17:55:44.428Z,26.08
2022-08-29T17:58:10.999Z,26.04
2022-08-29T18:00:38.151Z,25.98
2022-08-29T18:03:04.820Z,25.92
2022-08-29T18:05:31.341Z,25.90
2022-08-29T18:07:58.079Z,25.80
2022-08-29T18:10:25.598Z,25.74
2022-08-29T18:12:52.086Z,25.67
2022-08-29T18:15:18.754Z,25.58
2022-08-29T18:17:45.583Z,25.50
2022-08-29T18:20:16.112Z,25.41
2022-08-29T18:22:43.305Z,25.32
2022-08-29T18:25:11.399Z,25.26
2022-08-29T18:27:41.922Z,25.15
2022-08-29T18:30:13.579Z,25.07
2022-08-29T18:32:41.223Z,25.00
2022-08-29T18:35:08.891Z,24.94
2022-08-29T18:37:35.819Z,24.84
2022-08-29T18:40:04.557Z,24.78
2022-08-29T18:42:40.444Z,24.70
2022-08-29T18:45:10.213Z,24.57
2022-08-29T18:47:37.341Z,24.48
2022-08-29T18:50:24.899Z,24.40
2022-08-29T18:52:52.339Z,24.30
2022-08-29T18:55:19.185Z,24.18
2022-08-29T18:57:47.063Z,24.09
2022-08-29T19:00:14.493Z,23.95
2022-08-29T19:02:41.441Z,23.86
2022-08-29T19:05:08.335Z,23.74
2022-08-29T19:07:34.929Z,23.71
2022-08-29T19:10:01.489Z,23.63
2022-08-29T19:12:28.034Z,23.55
2022-08-29T19:14:54.534Z,23.50
2022-08-29T19:17:21.316Z,23.40
2022-08-29T19:20:10.311Z,23.30
2022-08-29T19:22:38.110Z,23.21
2022-08-29T19:25:06.059Z,23.15
2022-08-29T19:27:43.206Z,23.09
2022-08-29T19:30:12.168Z,23.00
2022-08-29T19:32:39.139Z,22.93
2022-08-29T19:35:06.061Z,22.88
2022-08-29T19:37:33.073Z,22.84
2022-08-29T19:39:59.641Z,22.78
2022-08-29T19:42:28.125Z,22.74
2022-08-29T19:44:55.231Z,22.70
2022-08-29T19:47:23.300Z,22.66
2022-08-29T19:49:50.943Z,22.59
2022-08-29T19:52:17.927Z,22.52
2022-08-29T19:54:44.483Z,22.49
2022-08-29T19:57:13.427Z,22.40
2022-08-29T19:59:41.546Z,22.32
2022-08-29T20:02:09.430Z,22.27
2022-08-29T20:04:36.353Z,22.19
2022-08-29T20:07:03.634Z,22.13
2022-08-29T20:09:31.602Z,22.04
2022-08-29T20:11:59.052Z,21.99
2022-08-29T20:14:25.781Z,21.95
2022-08-29T20:16:52.450Z,21.94
2022-08-29T20:19:21.362Z,21.91
2022-08-29T20:21:49.327Z,21.81
2022-08-29T20:24:16.689Z,21.74
2022-08-29T20:26:44.804Z,21.70
2022-08-29T20:29:12.194Z,21.67
2022-08-29T20:31:40.082Z,21.67
2022-08-29T20:34:06.854Z,21.66
2022-08-29T20:36:52.253Z,21.61
2022-08-29T20:39:21.403Z,21.58
2022-08-29T20:41:55.557Z,21.57
2022-08-29T20:44:31.474Z,21.55
2022-08-29T20:47:00.273Z,21.49
2022-08-29T20:49:27.150Z,21.47
2022-08-29T20:51:53.802Z,21.47
2022-08-29T20:54:23.666Z,21.48
2022-08-29T20:56:53.688Z,21.51
2022-08-29T20:59:22.548Z,21.52
2022-08-29T21:01:52.262Z,21.50
2022-08-29T21:04:37.760Z,21.50
2022-08-29T21:07:07.449Z,21.53
2022-08-29T21:09:35.951Z,21.55
2022-08-29T21:12:02.805Z,21.56
2022-08-29T21:14:29.326Z,21.61
2022-08-29T21:16:57.541Z,21.61
2022-08-29T21:19:26.346Z,21.61
2022-08-29T21:21:53.874Z,21.61
2022-08-29T21:24:20.555Z,21.55
2022-08-29T21:26:47.992Z,21.58
2022-08-29T21:29:14.746Z,21.58
2022-08-29T21:31:41.745Z,21.57
2022-08-29T21:34:12.933Z,21.56
2022-08-29T21:36:40.215Z,21.57
2022-08-29T21:39:09.357Z,21.56
2022-08-29T21:41:45.300Z,21.54
2022-08-29T21:44:13.539Z,21.54
2022-08-29T21:46:45.738Z,21.48
2022-08-29T21:49:17.090Z,21.52
2022-08-29T21:51:44.870Z,21.49
2022-08-29T21:54:14.033Z,21.46
2022-08-29T21:56:41.657Z,21.45
2022-08-29T21:59:08.701Z,21.45
2022-08-29T22:01:38.807Z,21.42
2022-08-29T22:04:08.847Z,21.40
2022-08-29T22:06:39.561Z,21.36
2022-08-29T22:09:10.184Z,21.33
2022-08-29T22:11:38.492Z,21.33
2022-08-29T22:14:09.166Z,21.32
2022-08-29T22:16:37.224Z,21.26
2022-08-29T22:19:11.980Z,21.23
2022-08-29T22:21:47.174Z,21.21
2022-08-29T22:24:16.434Z,21.20
2022-08-29T22:26:44.023Z,21.15
2022-08-29T22:29:13.613Z,21.10
2022-08-29T22:31:42.634Z,21.05
2022-08-29T22:34:10.283Z,21.06
2022-08-29T22:36:36.810Z,21.09
2022-08-29T22:39:04.189Z,21.11
2022-08-29T22:41:31.207Z,21.08
2022-08-29T22:44:35.881Z,21.02
2022-08-29T22:46:45.335Z,20.99
2022-08-29T22:49:12.016Z,21.00
2022-08-29T22:51:38.551Z,20.95
2022-08-29T22:54:23.711Z,20.94
2022-08-29T22:56:50.309Z,20.93
2022-08-29T22:59:21.620Z,20.89
2022-08-29T23:01:48.449Z,20.86
2022-08-29T23:04:15.167Z,20.88
2022-08-29T23:06:41.667Z,20.88
2022-08-29T23:09:08.444Z,20.86
2022-08-29T23:11:35.272Z,20.83
2022-08-29T23:14:02.414Z,20.84
2022-08-29T23:16:32.998Z,20.85
2022-08-29T23:19:00.894Z,20.83
2022-08-29T23:21:29.057Z,20.80
2022-08-29T23:23:58.187Z,20.80
2022-08-29T23:26:25.487Z,20.78
2022-08-29T23:28:52.075Z,20.75
2022-08-29T23:31:20.237Z,20.74
2022-08-29T23:33:46.747Z,20.72
2022-08-29T23:36:13.218Z,20.73
2022-08-29T23:38:40.021Z,20.71
2022-08-29T23:41:07.127Z,20.67
2022-08-29T23:43:36.761Z,20.68
2022-08-29T23:46:04.372Z,20.66
2022-08-29T23:48:32.096Z,20.63
2022-08-29T23:50:59.250Z,20.61
2022-08-29T23:53:25.961Z,20.58
2022-08-29T23:55:53.311Z,20.60
2022-08-29T23:58:19.838Z,20.58
